sensor_id;sensor_type;location;lat;lon;timestamp;P1;durP1;ratioP1;P2;durP2;ratioP2
68225;SDS011;55045;49.410;11.030;2023-12-29T00:00:14;11.93;;;11.07;;
68225;SDS011;55045;49.410;11.030;2023-12-29T00:03:18;12.20;;;11.38;;
68225;SDS011;55045;49.410;11.030;2023-12-29T00:06:23;12.15;;;11.35;;
68225;SDS011;55045;49.410;11.030;2023-12-29T00:09:27;12.10;;;11.20;;
68225;SDS011;55045;49.410;11.030;2023-12-29T00:12:31;11.10;;;10.30;;
68225;SDS011;55045;49.410;11.030;2023-12-29T00:15:35;11.70;;;10.90;;
68225;SDS011;55045;49.410;11.030;2023-12-29T00:18:39;12.13;;;11.10;;
68225;SDS011;55045;49.410;11.030;2023-12-29T00:21:44;11.50;;;10.80;;
68225;SDS011;55045;49.410;11.030;2023-12-29T00:24:48;11.23;;;10.50;;
68225;SDS011;55045;49.410;11.030;2023-12-29T00:27:51;11.90;;;11.10;;
68225;SDS011;55045;49.410;11.030;2023-12-29T00:30:55;11.80;;;11.00;;
68225;SDS011;55045;49.410;11.030;2023-12-29T00:34:05;11.88;;;11.18;;
68225;SDS011;55045;49.410;11.030;2023-12-29T00:37:10;12.02;;;11.15;;
68225;SDS011;55045;49.410;11.030;2023-12-29T00:40:14;12.85;;;11.80;;
68225;SDS011;55045;49.410;11.030;2023-12-29T00:43:17;11.82;;;11.13;;
68225;SDS011;55045;49.410;11.030;2023-12-29T00:46:21;11.60;;;10.68;;
68225;SDS011;55045;49.410;11.030;2023-12-29T00:49:25;11.40;;;10.65;;
68225;SDS011;55045;49.410;11.030;2023-12-29T00:52:30;10.93;;;10.13;;
68225;SDS011;55045;49.410;11.030;2023-12-29T00:55:36;10.90;;;10.30;;
68225;SDS011;55045;49.410;11.030;2023-12-29T00:58:39;11.63;;;10.88;;
68225;SDS011;55045;49.410;11.030;2023-12-29T01:01:44;11.48;;;10.63;;
68225;SDS011;55045;49.410;11.030;2023-12-29T01:04:48;10.85;;;10.23;;
68225;SDS011;55045;49.410;11.030;2023-12-29T01:07:54;11.38;;;10.68;;
68225;SDS011;55045;49.410;11.030;2023-12-29T01:10:58;11.48;;;10.57;;
68225;SDS011;55045;49.410;11.030;2023-12-29T01:14:02;11.85;;;11.05;;
68225;SDS011;55045;49.410;11.030;2023-12-29T01:17:05;12.27;;;11.38;;
68225;SDS011;55045;49.410;11.030;2023-12-29T01:20:10;11.32;;;10.57;;
68225;SDS011;55045;49.410;11.030;2023-12-29T01:23:15;11.95;;;11.15;;
68225;SDS011;55045;49.410;11.030;2023-12-29T01:26:19;10.90;;;10.20;;
68225;SDS011;55045;49.410;11.030;2023-12-29T01:29:23;11.20;;;10.23;;
68225;SDS011;55045;49.410;11.030;2023-12-29T01:32:26;10.93;;;10.23;;
68225;SDS011;55045;49.410;11.030;2023-12-29T01:35:30;10.98;;;10.32;;
68225;SDS011;55045;49.410;11.030;2023-12-29T01:38:36;11.48;;;10.77;;
68225;SDS011;55045;49.410;11.030;2023-12-29T01:41:39;10.90;;;10.20;;
68225;SDS011;55045;49.410;11.030;2023-12-29T01:44:43;11.00;;;10.40;;
68225;SDS011;55045;49.410;11.030;2023-12-29T01:47:47;10.70;;;10.00;;
68225;SDS011;55045;49.410;11.030;2023-12-29T01:50:51;10.75;;;9.95;;
68225;SDS011;55045;49.410;11.030;2023-12-29T01:53:58;10.45;;;9.85;;
68225;SDS011;55045;49.410;11.030;2023-12-29T01:57:02;10.88;;;10.18;;
68225;SDS011;55045;49.410;11.030;2023-12-29T02:00:07;11.05;;;10.45;;
68225;SDS011;55045;49.410;11.030;2023-12-29T02:03:20;10.93;;;10.23;;
68225;SDS011;55045;49.410;11.030;2023-12-29T02:06:24;10.65;;;9.98;;
68225;SDS011;55045;49.410;11.030;2023-12-29T02:09:30;10.43;;;9.73;;
68225;SDS011;55045;49.410;11.030;2023-12-29T02:12:36;10.35;;;9.68;;
68225;SDS011;55045;49.410;11.030;2023-12-29T02:15:40;11.38;;;10.68;;
68225;SDS011;55045;49.410;11.030;2023-12-29T02:18:44;10.60;;;9.95;;
68225;SDS011;55045;49.410;11.030;2023-12-29T02:21:50;10.77;;;10.10;;
68225;SDS011;55045;49.410;11.030;2023-12-29T02:24:55;10.90;;;10.30;;
68225;SDS011;55045;49.410;11.030;2023-12-29T02:27:59;10.82;;;10.02;;
68225;SDS011;55045;49.410;11.030;2023-12-29T02:31:07;11.35;;;10.45;;
68225;SDS011;55045;49.410;11.030;2023-12-29T02:34:17;11.02;;;10.32;;
68225;SDS011;55045;49.410;11.030;2023-12-29T02:37:24;11.15;;;10.45;;
68225;SDS011;55045;49.410;11.030;2023-12-29T02:40:30;11.07;;;10.35;;
68225;SDS011;55045;49.410;11.030;2023-12-29T02:43:35;11.52;;;10.75;;
68225;SDS011;55045;49.410;11.030;2023-12-29T02:46:39;12.30;;;11.48;;
68225;SDS011;55045;49.410;11.030;2023-12-29T02:49:42;12.07;;;11.18;;
68225;SDS011;55045;49.410;11.030;2023-12-29T02:52:47;12.20;;;11.27;;
68225;SDS011;55045;49.410;11.030;2023-12-29T02:55:52;12.48;;;11.52;;
68225;SDS011;55045;49.410;11.030;2023-12-29T02:58:55;12.70;;;11.80;;
68225;SDS011;55045;49.410;11.030;2023-12-29T03:01:59;12.63;;;11.73;;
68225;SDS011;55045;49.410;11.030;2023-12-29T03:05:03;12.45;;;11.65;;
68225;SDS011;55045;49.410;11.030;2023-12-29T03:08:07;13.10;;;12.20;;
68225;SDS011;55045;49.410;11.030;2023-12-29T03:11:12;13.25;;;12.20;;
68225;SDS011;55045;49.410;11.030;2023-12-29T03:14:16;13.63;;;12.50;;
68225;SDS011;55045;49.410;11.030;2023-12-29T03:17:20;13.35;;;12.32;;
68225;SDS011;55045;49.410;11.030;2023-12-29T03:20:24;14.38;;;13.00;;
68225;SDS011;55045;49.410;11.030;2023-12-29T03:23:30;12.63;;;11.73;;
68225;SDS011;55045;49.410;11.030;2023-12-29T03:26:35;13.90;;;12.80;;
68225;SDS011;55045;49.410;11.030;2023-12-29T03:29:39;13.13;;;12.07;;
68225;SDS011;55045;49.410;11.030;2023-12-29T03:32:43;12.48;;;11.55;;
68225;SDS011;55045;49.410;11.030;2023-12-29T03:35:46;13.02;;;12.15;;
68225;SDS011;55045;49.410;11.030;2023-12-29T03:38:50;13.07;;;12.10;;
68225;SDS011;55045;49.410;11.030;2023-12-29T03:41:55;13.13;;;12.13;;
68225;SDS011;55045;49.410;11.030;2023-12-29T03:44:59;12.75;;;11.75;;
68225;SDS011;55045;49.410;11.030;2023-12-29T03:48:03;13.57;;;12.50;;
68225;SDS011;55045;49.410;11.030;2023-12-29T03:51:07;12.65;;;11.65;;
68225;SDS011;55045;49.410;11.030;2023-12-29T03:54:11;13.15;;;12.15;;
68225;SDS011;55045;49.410;11.030;2023-12-29T03:57:16;13.98;;;12.98;;
68225;SDS011;55045;49.410;11.030;2023-12-29T04:00:20;13.23;;;11.95;;
68225;SDS011;55045;49.410;11.030;2023-12-29T04:03:25;12.98;;;11.90;;
68225;SDS011;55045;49.410;11.030;2023-12-29T04:06:29;12.13;;;11.23;;
68225;SDS011;55045;49.410;11.030;2023-12-29T04:09:32;12.73;;;11.73;;
68225;SDS011;55045;49.410;11.030;2023-12-29T04:12:37;13.70;;;12.73;;
68225;SDS011;55045;49.410;11.030;2023-12-29T04:15:41;12.20;;;11.40;;
68225;SDS011;55045;49.410;11.030;2023-12-29T04:18:45;13.15;;;11.95;;
68225;SDS011;55045;49.410;11.030;2023-12-29T04:21:49;12.60;;;11.50;;
68225;SDS011;55045;49.410;11.030;2023-12-29T04:24:52;12.85;;;11.85;;
68225;SDS011;55045;49.410;11.030;2023-12-29T04:27:57;12.60;;;11.80;;
68225;SDS011;55045;49.410;11.030;2023-12-29T04:34:11;11.55;;;10.73;;
68225;SDS011;55045;49.410;11.030;2023-12-29T04:37:15;11.32;;;10.43;;
68225;SDS011;55045;49.410;11.030;2023-12-29T04:40:19;12.40;;;11.43;;
68225;SDS011;55045;49.410;11.030;2023-12-29T04:43:22;12.55;;;11.48;;
68225;SDS011;55045;49.410;11.030;2023-12-29T04:46:26;11.88;;;10.90;;
68225;SDS011;55045;49.410;11.030;2023-12-29T04:49:31;10.82;;;10.07;;
68225;SDS011;55045;49.410;11.030;2023-12-29T04:52:35;12.65;;;11.65;;
68225;SDS011;55045;49.410;11.030;2023-12-29T04:55:39;12.35;;;11.32;;
68225;SDS011;55045;49.410;11.030;2023-12-29T04:58:42;12.23;;;11.32;;
68225;SDS011;55045;49.410;11.030;2023-12-29T05:01:46;12.18;;;11.18;;
68225;SDS011;55045;49.410;11.030;2023-12-29T05:04:52;12.65;;;11.65;;
68225;SDS011;55045;49.410;11.030;2023-12-29T05:07:55;13.15;;;12.20;;
68225;SDS011;55045;49.410;11.030;2023-12-29T05:10:59;14.13;;;12.95;;
68225;SDS011;55045;49.410;11.030;2023-12-29T05:14:03;13.43;;;12.38;;
68225;SDS011;55045;49.410;11.030;2023-12-29T05:17:07;12.73;;;11.70;;
68225;SDS011;55045;49.410;11.030;2023-12-29T05:20:12;13.25;;;11.98;;
68225;SDS011;55045;49.410;11.030;2023-12-29T05:23:16;13.50;;;12.40;;
68225;SDS011;55045;49.410;11.030;2023-12-29T05:26:19;12.80;;;11.80;;
68225;SDS011;55045;49.410;11.030;2023-12-29T05:29:23;14.20;;;13.07;;
68225;SDS011;55045;49.410;11.030;2023-12-29T05:32:27;14.25;;;13.15;;
68225;SDS011;55045;49.410;11.030;2023-12-29T05:35:32;13.70;;;12.60;;
68225;SDS011;55045;49.410;11.030;2023-12-29T05:38:36;14.20;;;13.00;;
68225;SDS011;55045;49.410;11.030;2023-12-29T05:41:47;14.13;;;13.02;;
68225;SDS011;55045;49.410;11.030;2023-12-29T05:44:51;14.43;;;13.32;;
68225;SDS011;55045;49.410;11.030;2023-12-29T05:47:55;14.30;;;13.30;;
68225;SDS011;55045;49.410;11.030;2023-12-29T05:51:02;14.70;;;13.40;;
68225;SDS011;55045;49.410;11.030;2023-12-29T05:54:09;13.82;;;12.60;;
68225;SDS011;55045;49.410;11.030;2023-12-29T05:57:13;14.70;;;13.50;;
68225;SDS011;55045;49.410;11.030;2023-12-29T06:00:17;12.43;;;11.43;;
68225;SDS011;55045;49.410;11.030;2023-12-29T06:03:21;14.73;;;13.63;;
68225;SDS011;55045;49.410;11.030;2023-12-29T06:06:26;15.18;;;13.65;;
68225;SDS011;55045;49.410;11.030;2023-12-29T06:09:30;15.60;;;14.30;;
68225;SDS011;55045;49.410;11.030;2023-12-29T06:12:33;14.55;;;13.35;;
68225;SDS011;55045;49.410;11.030;2023-12-29T06:15:37;14.13;;;13.02;;
68225;SDS011;55045;49.410;11.030;2023-12-29T06:18:41;14.27;;;12.88;;
68225;SDS011;55045;49.410;11.030;2023-12-29T06:21:47;14.27;;;12.98;;
68225;SDS011;55045;49.410;11.030;2023-12-29T06:24:51;14.48;;;13.15;;
68225;SDS011;55045;49.410;11.030;2023-12-29T06:27:55;14.75;;;13.45;;
68225;SDS011;55045;49.410;11.030;2023-12-29T06:30:59;14.63;;;13.43;;
68225;SDS011;55045;49.410;11.030;2023-12-29T06:34:03;14.23;;;13.02;;
68225;SDS011;55045;49.410;11.030;2023-12-29T06:37:08;13.77;;;12.60;;
68225;SDS011;55045;49.410;11.030;2023-12-29T06:40:12;12.73;;;11.65;;
68225;SDS011;55045;49.410;11.030;2023-12-29T06:43:16;13.48;;;12.48;;
68225;SDS011;55045;49.410;11.030;2023-12-29T06:46:19;13.52;;;12.32;;
68225;SDS011;55045;49.410;11.030;2023-12-29T06:49:24;13.80;;;12.60;;
68225;SDS011;55045;49.410;11.030;2023-12-29T06:52:30;14.13;;;12.82;;
68225;SDS011;55045;49.410;11.030;2023-12-29T06:55:36;12.75;;;11.45;;
68225;SDS011;55045;49.410;11.030;2023-12-29T06:58:40;12.82;;;11.52;;
68225;SDS011;55045;49.410;11.030;2023-12-29T07:01:44;11.90;;;10.55;;
68225;SDS011;55045;49.410;11.030;2023-12-29T07:04:48;11.57;;;10.45;;
68225;SDS011;55045;49.410;11.030;2023-12-29T07:07:53;11.75;;;10.55;;
68225;SDS011;55045;49.410;11.030;2023-12-29T07:11:00;10.77;;;9.68;;
68225;SDS011;55045;49.410;11.030;2023-12-29T07:14:04;11.35;;;10.35;;
68225;SDS011;55045;49.410;11.030;2023-12-29T07:17:07;10.10;;;9.20;;
68225;SDS011;55045;49.410;11.030;2023-12-29T07:20:11;10.55;;;9.75;;
68225;SDS011;55045;49.410;11.030;2023-12-29T07:23:16;11.25;;;10.45;;
68225;SDS011;55045;49.410;11.030;2023-12-29T07:26:20;11.85;;;9.95;;
68225;SDS011;55045;49.410;11.030;2023-12-29T07:29:24;10.70;;;9.68;;
68225;SDS011;55045;49.410;11.030;2023-12-29T07:32:28;10.57;;;9.85;;
68225;SDS011;55045;49.410;11.030;2023-12-29T07:35:32;10.80;;;9.90;;
68225;SDS011;55045;49.410;11.030;2023-12-29T07:38:37;10.98;;;10.10;;
68225;SDS011;55045;49.410;11.030;2023-12-29T07:41:48;10.55;;;9.65;;
68225;SDS011;55045;49.410;11.030;2023-12-29T07:44:53;11.00;;;9.98;;
68225;SDS011;55045;49.410;11.030;2023-12-29T07:47:58;11.13;;;10.32;;
68225;SDS011;55045;49.410;11.030;2023-12-29T07:51:04;10.13;;;9.43;;
68225;SDS011;55045;49.410;11.030;2023-12-29T07:54:10;11.63;;;10.60;;
68225;SDS011;55045;49.410;11.030;2023-12-29T07:57:13;11.65;;;10.65;;
68225;SDS011;55045;49.410;11.030;2023-12-29T08:00:17;9.95;;;9.25;;
68225;SDS011;55045;49.410;11.030;2023-12-29T08:03:21;10.43;;;9.68;;
68225;SDS011;55045;49.410;11.030;2023-12-29T08:06:25;10.52;;;9.82;;
68225;SDS011;55045;49.410;11.030;2023-12-29T08:09:30;11.05;;;10.20;;
68225;SDS011;55045;49.410;11.030;2023-12-29T08:12:34;14.57;;;10.32;;
68225;SDS011;55045;49.410;11.030;2023-12-29T08:15:38;10.35;;;9.68;;
68225;SDS011;55045;49.410;11.030;2023-12-29T08:18:42;9.43;;;8.82;;
68225;SDS011;55045;49.410;11.030;2023-12-29T08:21:46;10.15;;;9.48;;
68225;SDS011;55045;49.410;11.030;2023-12-29T08:24:51;7.93;;;7.53;;
68225;SDS011;55045;49.410;11.030;2023-12-29T08:27:55;8.00;;;7.50;;
68225;SDS011;55045;49.410;11.030;2023-12-29T08:30:59;8.23;;;7.60;;
68225;SDS011;55045;49.410;11.030;2023-12-29T08:34:03;9.30;;;8.80;;
68225;SDS011;55045;49.410;11.030;2023-12-29T08:37:07;7.47;;;7.00;;
68225;SDS011;55045;49.410;11.030;2023-12-29T08:40:12;6.25;;;5.95;;
68225;SDS011;55045;49.410;11.030;2023-12-29T08:43:16;5.85;;;5.55;;
68225;SDS011;55045;49.410;11.030;2023-12-29T08:46:23;3.90;;;3.70;;
68225;SDS011;55045;49.410;11.030;2023-12-29T08:49:27;7.35;;;6.85;;
68225;SDS011;55045;49.410;11.030;2023-12-29T08:52:30;6.05;;;5.00;;
68225;SDS011;55045;49.410;11.030;2023-12-29T08:55:36;4.70;;;4.50;;
68225;SDS011;55045;49.410;11.030;2023-12-29T08:58:40;4.20;;;4.00;;
68225;SDS011;55045;49.410;11.030;2023-12-29T09:01:48;5.28;;;3.85;;
68225;SDS011;55045;49.410;11.030;2023-12-29T09:05:52;8.80;;;7.57;;
68225;SDS011;55045;49.410;11.030;2023-12-29T09:10:11;5.30;;;4.90;;
68225;SDS011;55045;49.410;11.030;2023-12-29T09:18:30;4.50;;;4.20;;
68225;SDS011;55045;49.410;11.030;2023-12-29T09:22:15;4.63;;;4.22;;
68225;SDS011;55045;49.410;11.030;2023-12-29T09:25:48;6.10;;;5.80;;
68225;SDS011;55045;49.410;11.030;2023-12-29T09:41:53;5.57;;;5.28;;
68225;SDS011;55045;49.410;11.030;2023-12-29T09:45:22;8.52;;;7.72;;
68225;SDS011;55045;49.410;11.030;2023-12-29T09:49:22;16.75;;;10.85;;
68225;SDS011;55045;49.410;11.030;2023-12-29T09:53:07;11.73;;;10.05;;
68225;SDS011;55045;49.410;11.030;2023-12-29T09:56:16;7.63;;;7.22;;
68225;SDS011;55045;49.410;11.030;2023-12-29T09:59:26;9.63;;;8.85;;
68225;SDS011;55045;49.410;11.030;2023-12-29T10:02:59;6.45;;;6.05;;
68225;SDS011;55045;49.410;11.030;2023-12-29T10:06:52;10.23;;;9.30;;
68225;SDS011;55045;49.410;11.030;2023-12-29T10:10:47;7.93;;;7.53;;
68225;SDS011;55045;49.410;11.030;2023-12-29T10:14:41;11.13;;;10.43;;
68225;SDS011;55045;49.410;11.030;2023-12-29T10:18:36;12.50;;;11.70;;
68225;SDS011;55045;49.410;11.030;2023-12-29T10:22:37;13.77;;;12.88;;
68225;SDS011;55045;49.410;11.030;2023-12-29T10:26:22;12.88;;;12.07;;
68225;SDS011;55045;49.410;11.030;2023-12-29T10:34:21;14.00;;;12.90;;
68225;SDS011;55045;49.410;11.030;2023-12-29T10:39:36;13.05;;;12.15;;
68225;SDS011;55045;49.410;11.030;2023-12-29T10:43:00;12.52;;;11.63;;
68225;SDS011;55045;49.410;11.030;2023-12-29T10:47:20;13.20;;;12.10;;
68225;SDS011;55045;49.410;11.030;2023-12-29T10:50:46;13.23;;;12.13;;
68225;SDS011;55045;49.410;11.030;2023-12-29T10:54:18;13.00;;;11.90;;
68225;SDS011;55045;49.410;11.030;2023-12-29T10:57:46;12.73;;;11.60;;
68225;SDS011;55045;49.410;11.030;2023-12-29T11:01:47;10.93;;;10.18;;
68225;SDS011;55045;49.410;11.030;2023-12-29T11:04:55;10.10;;;9.50;;
68225;SDS011;55045;49.410;11.030;2023-12-29T11:08:06;11.48;;;10.68;;
68225;SDS011;55045;49.410;11.030;2023-12-29T11:11:18;11.80;;;10.90;;
68225;SDS011;55045;49.410;11.030;2023-12-29T11:14:23;11.02;;;10.23;;
68225;SDS011;55045;49.410;11.030;2023-12-29T11:17:26;12.63;;;11.45;;
68225;SDS011;55045;49.410;11.030;2023-12-29T11:20:32;11.55;;;10.73;;
68225;SDS011;55045;49.410;11.030;2023-12-29T11:23:40;11.82;;;10.85;;
68225;SDS011;55045;49.410;11.030;2023-12-29T11:26:48;11.35;;;10.55;;
68225;SDS011;55045;49.410;11.030;2023-12-29T11:29:52;10.60;;;9.90;;
68225;SDS011;55045;49.410;11.030;2023-12-29T11:32:57;11.20;;;10.50;;
68225;SDS011;55045;49.410;11.030;2023-12-29T11:36:08;10.40;;;9.60;;
68225;SDS011;55045;49.410;11.030;2023-12-29T11:39:36;9.60;;;8.88;;
68225;SDS011;55045;49.410;11.030;2023-12-29T11:42:45;10.05;;;9.45;;
68225;SDS011;55045;49.410;11.030;2023-12-29T11:45:53;11.50;;;10.60;;
68225;SDS011;55045;49.410;11.030;2023-12-29T11:48:57;10.73;;;9.93;;
68225;SDS011;55045;49.410;11.030;2023-12-29T11:52:05;10.23;;;9.52;;
68225;SDS011;55045;49.410;11.030;2023-12-29T11:55:11;9.55;;;9.00;;
68225;SDS011;55045;49.410;11.030;2023-12-29T11:58:23;9.85;;;9.18;;
68225;SDS011;55045;49.410;11.030;2023-12-29T12:01:33;8.27;;;7.82;;
68225;SDS011;55045;49.410;11.030;2023-12-29T12:07:56;8.90;;;8.27;;
68225;SDS011;55045;49.410;11.030;2023-12-29T12:14:49;6.35;;;5.95;;
68225;SDS011;55045;49.410;11.030;2023-12-29T12:17:53;6.05;;;5.65;;
68225;SDS011;55045;49.410;11.030;2023-12-29T12:20:58;3.35;;;3.03;;
68225;SDS011;55045;49.410;11.030;2023-12-29T12:24:04;2.95;;;2.78;;
68225;SDS011;55045;49.410;11.030;2023-12-29T12:27:09;2.80;;;2.70;;
68225;SDS011;55045;49.410;11.030;2023-12-29T12:30:15;1.80;;;1.70;;
68225;SDS011;55045;49.410;11.030;2023-12-29T12:33:22;2.00;;;1.90;;
68225;SDS011;55045;49.410;11.030;2023-12-29T12:36:28;1.75;;;1.65;;
68225;SDS011;55045;49.410;11.030;2023-12-29T12:39:38;2.08;;;1.98;;
68225;SDS011;55045;49.410;11.030;2023-12-29T12:42:43;1.60;;;1.60;;
68225;SDS011;55045;49.410;11.030;2023-12-29T12:45:51;1.80;;;1.70;;
68225;SDS011;55045;49.410;11.030;2023-12-29T12:48:58;1.60;;;1.50;;
68225;SDS011;55045;49.410;11.030;2023-12-29T12:52:03;3.50;;;3.20;;
68225;SDS011;55045;49.410;11.030;2023-12-29T12:55:08;1.90;;;1.80;;
68225;SDS011;55045;49.410;11.030;2023-12-29T12:58:13;1.95;;;1.85;;
68225;SDS011;55045;49.410;11.030;2023-12-29T13:01:18;1.98;;;1.73;;
68225;SDS011;55045;49.410;11.030;2023-12-29T13:04:22;1.80;;;1.70;;
68225;SDS011;55045;49.410;11.030;2023-12-29T13:07:27;2.00;;;1.90;;
68225;SDS011;55045;49.410;11.030;2023-12-29T13:10:30;1.70;;;1.60;;
68225;SDS011;55045;49.410;11.030;2023-12-29T13:13:38;1.73;;;1.63;;
68225;SDS011;55045;49.410;11.030;2023-12-29T13:16:43;1.20;;;1.20;;
68225;SDS011;55045;49.410;11.030;2023-12-29T13:19:46;1.60;;;1.50;;
68225;SDS011;55045;49.410;11.030;2023-12-29T13:23:00;1.50;;;1.40;;
68225;SDS011;55045;49.410;11.030;2023-12-29T13:26:04;1.77;;;1.63;;
68225;SDS011;55045;49.410;11.030;2023-12-29T13:29:11;1.50;;;1.40;;
68225;SDS011;55045;49.410;11.030;2023-12-29T13:32:20;1.60;;;1.50;;
68225;SDS011;55045;49.410;11.030;2023-12-29T13:35:30;1.92;;;1.55;;
68225;SDS011;55045;49.410;11.030;2023-12-29T13:38:39;3.47;;;2.20;;
68225;SDS011;55045;49.410;11.030;2023-12-29T13:41:49;1.25;;;1.23;;
68225;SDS011;55045;49.410;11.030;2023-12-29T13:44:53;1.63;;;1.52;;
68225;SDS011;55045;49.410;11.030;2023-12-29T13:48:00;9.43;;;4.45;;
68225;SDS011;55045;49.410;11.030;2023-12-29T13:51:05;1.90;;;1.80;;
68225;SDS011;55045;49.410;11.030;2023-12-29T13:54:09;1.98;;;1.88;;
68225;SDS011;55045;49.410;11.030;2023-12-29T13:57:14;1.80;;;1.70;;
68225;SDS011;55045;49.410;11.030;2023-12-29T14:00:21;1.70;;;1.60;;
68225;SDS011;55045;49.410;11.030;2023-12-29T14:03:30;3.10;;;1.80;;
68225;SDS011;55045;49.410;11.030;2023-12-29T14:06:38;3.15;;;2.40;;
68225;SDS011;55045;49.410;11.030;2023-12-29T14:09:45;2.92;;;2.72;;
68225;SDS011;55045;49.410;11.030;2023-12-29T14:12:49;2.00;;;1.90;;
68225;SDS011;55045;49.410;11.030;2023-12-29T14:15:52;2.00;;;1.88;;
68225;SDS011;55045;49.410;11.030;2023-12-29T14:18:57;2.15;;;1.70;;
68225;SDS011;55045;49.410;11.030;2023-12-29T14:22:02;1.70;;;1.60;;
68225;SDS011;55045;49.410;11.030;2023-12-29T14:25:15;1.67;;;1.58;;
68225;SDS011;55045;49.410;11.030;2023-12-29T14:28:55;1.75;;;1.65;;
68225;SDS011;55045;49.410;11.030;2023-12-29T14:32:52;1.60;;;1.50;;
68225;SDS011;55045;49.410;11.030;2023-12-29T14:36:47;1.63;;;1.52;;
68225;SDS011;55045;49.410;11.030;2023-12-29T14:40:11;2.58;;;2.38;;
68225;SDS011;55045;49.410;11.030;2023-12-29T14:43:27;1.95;;;1.85;;
68225;SDS011;55045;49.410;11.030;2023-12-29T14:46:30;1.80;;;1.70;;
68225;SDS011;55045;49.410;11.030;2023-12-29T14:49:37;2.22;;;2.03;;
68225;SDS011;55045;49.410;11.030;2023-12-29T14:52:42;4.55;;;3.58;;
68225;SDS011;55045;49.410;11.030;2023-12-29T14:55:46;3.80;;;1.60;;
68225;SDS011;55045;49.410;11.030;2023-12-29T14:58:49;2.25;;;2.10;;
68225;SDS011;55045;49.410;11.030;2023-12-29T15:01:53;5.82;;;2.80;;
68225;SDS011;55045;49.410;11.030;2023-12-29T15:04:57;4.38;;;3.40;;
68225;SDS011;55045;49.410;11.030;2023-12-29T15:08:02;4.18;;;3.28;;
68225;SDS011;55045;49.410;11.030;2023-12-29T15:11:06;4.82;;;3.13;;
68225;SDS011;55045;49.410;11.030;2023-12-29T15:14:10;5.38;;;2.83;;
68225;SDS011;55045;49.410;11.030;2023-12-29T15:17:13;3.40;;;2.28;;
68225;SDS011;55045;49.410;11.030;2023-12-29T15:20:17;2.88;;;2.67;;
68225;SDS011;55045;49.410;11.030;2023-12-29T15:23:22;2.78;;;2.58;;
68225;SDS011;55045;49.410;11.030;2023-12-29T15:26:26;4.22;;;3.83;;
68225;SDS011;55045;49.410;11.030;2023-12-29T15:29:30;9.30;;;5.38;;
68225;SDS011;55045;49.410;11.030;2023-12-29T15:32:34;8.43;;;4.20;;
68225;SDS011;55045;49.410;11.030;2023-12-29T15:35:38;7.47;;;4.30;;
68225;SDS011;55045;49.410;11.030;2023-12-29T15:38:44;8.55;;;4.07;;
68225;SDS011;55045;49.410;11.030;2023-12-29T15:41:47;8.70;;;4.95;;
68225;SDS011;55045;49.410;11.030;2023-12-29T15:44:51;13.05;;;6.43;;
68225;SDS011;55045;49.410;11.030;2023-12-29T15:47:55;6.95;;;3.38;;
68225;SDS011;55045;49.410;11.030;2023-12-29T15:50:59;6.60;;;4.00;;
68225;SDS011;55045;49.410;11.030;2023-12-29T15:54:04;8.52;;;4.75;;
68225;SDS011;55045;49.410;11.030;2023-12-29T15:57:07;5.30;;;3.22;;
68225;SDS011;55045;49.410;11.030;2023-12-29T16:00:11;4.68;;;4.10;;
68225;SDS011;55045;49.410;11.030;2023-12-29T16:03:17;4.30;;;3.00;;
68225;SDS011;55045;49.410;11.030;2023-12-29T16:06:20;3.20;;;2.90;;
68225;SDS011;55045;49.410;11.030;2023-12-29T16:09:26;2.70;;;2.50;;
68225;SDS011;55045;49.410;11.030;2023-12-29T16:12:29;5.82;;;3.92;;
68225;SDS011;55045;49.410;11.030;2023-12-29T16:15:33;11.57;;;7.07;;
68225;SDS011;55045;49.410;11.030;2023-12-29T16:18:37;5.70;;;4.10;;
68225;SDS011;55045;49.410;11.030;2023-12-29T16:21:41;5.78;;;5.10;;
68225;SDS011;55045;49.410;11.030;2023-12-29T16:24:46;7.82;;;6.13;;
68225;SDS011;55045;49.410;11.030;2023-12-29T16:27:53;6.25;;;4.35;;
68225;SDS011;55045;49.410;11.030;2023-12-29T16:34:11;8.80;;;5.28;;
68225;SDS011;55045;49.410;11.030;2023-12-29T16:37:15;4.82;;;4.22;;
68225;SDS011;55045;49.410;11.030;2023-12-29T16:40:18;7.63;;;6.32;;
68225;SDS011;55045;49.410;11.030;2023-12-29T16:43:22;7.15;;;6.65;;
68225;SDS011;55045;49.410;11.030;2023-12-29T16:46:26;5.38;;;4.97;;
68225;SDS011;55045;49.410;11.030;2023-12-29T16:49:31;5.30;;;5.00;;
68225;SDS011;55045;49.410;11.030;2023-12-29T16:52:35;5.40;;;4.90;;
68225;SDS011;55045;49.410;11.030;2023-12-29T16:55:39;5.15;;;4.75;;
68225;SDS011;55045;49.410;11.030;2023-12-29T16:58:42;18.33;;;8.57;;
68225;SDS011;55045;49.410;11.030;2023-12-29T17:01:46;15.98;;;8.73;;
68225;SDS011;55045;49.410;11.030;2023-12-29T17:04:51;5.90;;;5.30;;
68225;SDS011;55045;49.410;11.030;2023-12-29T17:07:55;8.13;;;6.68;;
68225;SDS011;55045;49.410;11.030;2023-12-29T17:10:59;7.00;;;6.50;;
68225;SDS011;55045;49.410;11.030;2023-12-29T17:14:05;8.88;;;8.27;;
68225;SDS011;55045;49.410;11.030;2023-12-29T17:17:08;8.75;;;8.15;;
68225;SDS011;55045;49.410;11.030;2023-12-29T17:20:13;7.78;;;7.18;;
68225;SDS011;55045;49.410;11.030;2023-12-29T17:23:17;10.88;;;9.98;;
68225;SDS011;55045;49.410;11.030;2023-12-29T17:26:20;12.50;;;11.32;;
68225;SDS011;55045;49.410;11.030;2023-12-29T17:29:24;7.82;;;7.18;;
68225;SDS011;55045;49.410;11.030;2023-12-29T17:32:28;7.95;;;7.45;;
68225;SDS011;55045;49.410;11.030;2023-12-29T17:35:33;7.93;;;7.32;;
68225;SDS011;55045;49.410;11.030;2023-12-29T17:38:37;6.97;;;6.47;;
68225;SDS011;55045;49.410;11.030;2023-12-29T17:41:47;6.60;;;6.10;;
68225;SDS011;55045;49.410;11.030;2023-12-29T17:44:51;4.80;;;4.50;;
68225;SDS011;55045;49.410;11.030;2023-12-29T17:47:55;5.25;;;4.95;;
68225;SDS011;55045;49.410;11.030;2023-12-29T17:51:00;7.18;;;6.68;;
68225;SDS011;55045;49.410;11.030;2023-12-29T17:54:04;7.35;;;6.85;;
68225;SDS011;55045;49.410;11.030;2023-12-29T17:57:08;6.30;;;5.90;;
68225;SDS011;55045;49.410;11.030;2023-12-29T18:00:12;6.28;;;5.80;;
68225;SDS011;55045;49.410;11.030;2023-12-29T18:03:17;7.80;;;7.10;;
68225;SDS011;55045;49.410;11.030;2023-12-29T18:06:22;7.07;;;6.47;;
68225;SDS011;55045;49.410;11.030;2023-12-29T18:09:25;6.25;;;5.68;;
68225;SDS011;55045;49.410;11.030;2023-12-29T18:12:29;5.85;;;5.30;;
68225;SDS011;55045;49.410;11.030;2023-12-29T18:15:32;5.40;;;4.20;;
68225;SDS011;55045;49.410;11.030;2023-12-29T18:18:38;4.97;;;4.15;;
68225;SDS011;55045;49.410;11.030;2023-12-29T18:21:47;4.90;;;4.50;;
68225;SDS011;55045;49.410;11.030;2023-12-29T18:24:51;5.88;;;5.38;;
68225;SDS011;55045;49.410;11.030;2023-12-29T18:27:55;5.07;;;4.80;;
68225;SDS011;55045;49.410;11.030;2023-12-29T18:31:00;6.97;;;6.47;;
68225;SDS011;55045;49.410;11.030;2023-12-29T18:34:05;8.38;;;7.57;;
68225;SDS011;55045;49.410;11.030;2023-12-29T18:37:13;7.82;;;7.22;;
68225;SDS011;55045;49.410;11.030;2023-12-29T18:40:17;5.50;;;5.00;;
68225;SDS011;55045;49.410;11.030;2023-12-29T18:43:21;8.38;;;7.78;;
68225;SDS011;55045;49.410;11.030;2023-12-29T18:46:25;6.60;;;6.07;;
68225;SDS011;55045;49.410;11.030;2023-12-29T18:49:30;6.65;;;6.25;;
68225;SDS011;55045;49.410;11.030;2023-12-29T18:52:35;6.40;;;6.00;;
68225;SDS011;55045;49.410;11.030;2023-12-29T18:55:39;6.38;;;5.78;;